createdAt,value
2015-12-08T00:00:54.010Z,8.4
2015-12-08T00:01:53.944Z,8.4
2015-12-08T00:02:53.901Z,8.4
2015-12-08T00:03:53.840Z,8.5
2015-12-08T00:04:53.797Z,8.4
2015-12-08T00:05:53.738Z,8.4
2015-12-08T00:06:53.694Z,8.5
2015-12-08T00:07:53.631Z,8.5
2015-12-08T00:08:53.586Z,8.5
2015-12-08T00:09:53.527Z,8.5
2015-12-08T00:10:53.482Z,8.5
2015-12-08T00:11:53.425Z,8.4
2015-12-08T00:12:53.382Z,8.4
2015-12-08T00:13:53.322Z,8.4
2015-12-08T00:14:53.260Z,8.4
2015-12-08T00:15:53.216Z,8.3
2015-12-08T00:16:53.155Z,8.3
2015-12-08T00:17:53.111Z,8.3
2015-12-08T00:18:53.068Z,8.3
2015-12-08T00:19:53.008Z,8.4
2015-12-08T00:20:52.949Z,8.4
2015-12-08T00:21:52.906Z,8.4
2015-12-08T00:22:52.846Z,8.5
2015-12-08T00:23:52.799Z,8.5
2015-12-08T00:24:52.740Z,8.5
2015-12-08T00:25:52.679Z,8.5
2015-12-08T00:26:52.635Z,8.5
2015-12-08T00:27:52.608Z,8.4
2015-12-08T00:28:52.533Z,8.4
2015-12-08T00:29:52.473Z,8.4
2015-12-08T00:30:52.430Z,8.3
2015-12-08T00:31:52.367Z,8.3
2015-12-08T00:32:52.302Z,8.4
2015-12-08T00:33:52.244Z,8.3
2015-12-08T00:34:52.167Z,8.3
2015-12-08T00:35:52.110Z,8.3
2015-12-08T00:36:52.038Z,8.3
2015-12-08T00:37:51.989Z,8.3
2015-12-08T00:38:51.924Z,8.3
2015-12-08T00:39:51.877Z,8.2
2015-12-08T00:40:51.812Z,8.3
2015-12-08T00:41:51.748Z,8.2
2015-12-08T00:42:51.702Z,8.2
2015-12-08T00:43:51.639Z,8.2
2015-12-08T00:44:51.594Z,8.1
2015-12-08T00:45:51.533Z,8
2015-12-08T00:46:51.487Z,8
2015-12-08T00:47:51.442Z,8
2015-12-08T00:48:51.382Z,8
2015-12-08T00:49:51.319Z,8.1
2015-12-08T00:50:51.274Z,8.1
2015-12-08T00:51:51.214Z,8.1
2015-12-08T00:52:51.154Z,8.1
2015-12-08T00:53:51.109Z,8.1
2015-12-08T00:54:51.051Z,8.1
2015-12-08T00:55:50.991Z,8
2015-12-08T00:56:50.948Z,8
2015-12-08T00:57:50.887Z,8
2015-12-08T00:58:50.844Z,8
2015-12-08T00:59:50.785Z,8
2015-12-08T01:00:50.722Z,8
2015-12-08T01:01:50.678Z,8
2015-12-08T01:02:50.618Z,8
2015-12-08T01:03:50.575Z,8
2015-12-08T01:04:50.514Z,7.9
2015-12-08T01:05:50.456Z,7.8
2015-12-08T01:06:50.412Z,7.9
2015-12-08T01:07:50.352Z,7.9
2015-12-08T01:08:50.309Z,7.9
2015-12-08T01:09:50.246Z,7.9
2015-12-08T01:10:50.202Z,7.8
2015-12-08T01:11:50.143Z,7.8
2015-12-08T01:12:50.083Z,7.8
2015-12-08T01:13:50.038Z,7.8
2015-12-08T01:14:49.995Z,7.8
2015-12-08T01:15:49.936Z,7.8
2015-12-08T01:16:49.877Z,7.8
2015-12-08T01:17:49.832Z,7.8
2015-12-08T01:18:49.774Z,7.8
2015-12-08T01:19:49.729Z,7.7
2015-12-08T01:20:49.667Z,7.7
2015-12-08T01:21:49.607Z,7.7
2015-12-08T01:22:49.562Z,7.7
2015-12-08T01:23:49.503Z,7.7
2015-12-08T01:24:49.460Z,7.6
2015-12-08T01:25:49.401Z,7.6
2015-12-08T01:26:49.341Z,7.6
2015-12-08T01:27:49.296Z,7.6
2015-12-08T01:28:49.236Z,7.6
2015-12-08T01:29:49.176Z,7.5
2015-12-08T01:30:49.132Z,7.5
2015-12-08T01:31:49.072Z,7.4
2015-12-08T01:32:49.028Z,7.5
2015-12-08T01:33:48.968Z,7.4
2015-12-08T01:34:48.909Z,7.5
2015-12-08T01:35:48.864Z,7.5
2015-12-08T01:36:48.805Z,7.5
2015-12-08T01:37:48.761Z,7.5
2015-12-08T01:38:48.700Z,7.4
2015-12-08T01:39:48.656Z,7.4
2015-12-08T01:40:48.597Z,7.4
2015-12-08T01:41:48.553Z,7.3
2015-12-08T01:42:48.493Z,7.3
2015-12-08T01:43:48.433Z,7.4
2015-12-08T01:44:48.389Z,7.4
2015-12-08T01:45:48.330Z,7.4
2015-12-08T01:46:48.286Z,7.4
2015-12-08T01:47:48.225Z,7.3
2015-12-08T01:48:48.165Z,7.3
2015-12-08T01:49:48.121Z,7.2
2015-12-08T01:50:48.061Z,7.1
2015-12-08T01:51:48.002Z,7
2015-12-08T01:52:47.958Z,7
2015-12-08T01:53:47.897Z,7.1
2015-12-08T01:54:47.838Z,7.2
2015-12-08T01:55:47.793Z,7.2
2015-12-08T01:56:47.734Z,7.1
2015-12-08T01:57:47.690Z,7.1
2015-12-08T01:58:47.646Z,7.1
2015-12-08T01:59:47.586Z,7
2015-12-08T02:00:47.526Z,7
2015-12-08T02:01:47.465Z,7.1
2015-12-08T02:02:47.421Z,7.1
2015-12-08T02:03:47.363Z,7.1
2015-12-08T02:04:47.318Z,7
2015-12-08T02:05:47.258Z,7
2015-12-08T02:06:47.214Z,7.1
2015-12-08T02:07:47.154Z,7.1
2015-12-08T02:08:47.094Z,7.1
2015-12-08T02:09:47.050Z,7.1
2015-12-08T02:10:46.990Z,7.2
2015-12-08T02:11:46.946Z,7.2
2015-12-08T02:12:46.887Z,7.2
2015-12-08T02:13:46.826Z,7.3
2015-12-08T02:14:46.783Z,7.3
2015-12-08T02:15:46.723Z,7.3
2015-12-08T02:16:46.663Z,7.3
2015-12-08T02:17:46.634Z,7.3
2015-12-08T02:18:46.559Z,7.3
2015-12-08T02:19:46.499Z,7.3
2015-12-08T02:20:46.455Z,7.3
2015-12-08T02:21:46.395Z,7.3
2015-12-08T02:22:46.351Z,7.3
2015-12-08T02:23:46.291Z,7.3
2015-12-08T02:24:46.231Z,7.3
2015-12-08T02:25:46.188Z,7.2
2015-12-08T02:26:46.127Z,7.2
2015-12-08T02:27:46.083Z,7.2
2015-12-08T02:28:46.024Z,7.1
2015-12-08T02:29:45.964Z,7.1
2015-12-08T02:30:45.919Z,7.1
2015-12-08T02:31:45.860Z,7.2
2015-12-08T02:32:45.816Z,7.2
2015-12-08T02:33:45.756Z,7.2
2015-12-08T02:34:45.697Z,7.2
2015-12-08T02:35:45.652Z,7.1
2015-12-08T02:36:45.593Z,7
2015-12-08T02:37:45.532Z,7
2015-12-08T02:38:45.519Z,7.1
2015-12-08T02:39:45.429Z,7
2015-12-08T02:40:45.384Z,6.9
2015-12-08T02:41:45.324Z,6.9
2015-12-08T02:42:45.265Z,6.9
2015-12-08T02:43:45.221Z,6.9
2015-12-08T02:44:45.160Z,6.9
2015-12-08T02:45:45.101Z,7
2015-12-08T02:46:45.057Z,7.1
2015-12-08T02:47:44.995Z,7.1
2015-12-08T02:48:44.950Z,7.2
2015-12-08T02:49:44.890Z,7.2
2015-12-08T02:50:44.831Z,7.1
2015-12-08T02:51:44.787Z,7.1
2015-12-08T02:52:44.726Z,7.2
2015-12-08T02:53:44.681Z,7.2
2015-12-08T02:54:44.622Z,7.2
2015-12-08T02:55:44.579Z,7.3
2015-12-08T02:56:44.519Z,7.3
2015-12-08T02:57:44.458Z,7.2
2015-12-08T02:58:44.414Z,7.2
2015-12-08T02:59:44.355Z,7.2
2015-12-08T03:00:44.311Z,7.2
2015-12-08T03:01:44.251Z,7.2
2015-12-08T03:02:44.206Z,7.2
2015-12-08T03:03:44.147Z,7.3
2015-12-08T03:04:44.087Z,7.3
2015-12-08T03:05:44.027Z,7.2
2015-12-08T03:06:43.983Z,7.1
2015-12-08T03:07:43.924Z,7.1
2015-12-08T03:08:43.863Z,7.1
2015-12-08T03:09:43.820Z,7.1
2015-12-08T03:10:43.760Z,6.9
2015-12-08T03:11:43.715Z,7
2015-12-08T03:12:43.655Z,7
2015-12-08T03:13:43.596Z,7
2015-12-08T03:14:43.552Z,7
2015-12-08T03:15:43.491Z,7
2015-12-08T03:16:43.448Z,6.8
2015-12-08T03:17:43.388Z,6.8
2015-12-08T03:18:43.328Z,6.8
2015-12-08T03:19:43.268Z,6.8
2015-12-08T03:20:43.224Z,6.8
2015-12-08T03:21:43.164Z,6.8
2015-12-08T03:22:43.121Z,6.8
2015-12-08T03:23:43.062Z,6.8
2015-12-08T03:24:43.002Z,6.8
2015-12-08T03:25:42.955Z,6.9
2015-12-08T03:26:42.895Z,6.8
2015-12-08T03:27:42.852Z,6.7
2015-12-08T03:28:42.791Z,6.7
2015-12-08T03:29:42.732Z,6.7
2015-12-08T03:30:42.673Z,6.7
2015-12-08T03:31:42.614Z,6.6
2015-12-08T03:32:42.569Z,6.6
2015-12-08T03:33:42.509Z,6.7
2015-12-08T03:34:42.465Z,6.7
2015-12-08T03:35:42.405Z,6.6
2015-12-08T03:36:42.346Z,6.7
2015-12-08T03:37:42.301Z,6.7
2015-12-08T03:38:42.242Z,6.7
2015-12-08T03:39:42.182Z,6.6
2015-12-08T03:40:42.139Z,6.6
2015-12-08T03:41:42.078Z,6.6
2015-12-08T03:42:42.034Z,6.6
2015-12-08T03:43:41.975Z,6.6
2015-12-08T03:44:41.914Z,6.6
2015-12-08T03:45:41.870Z,6.5
2015-12-08T03:46:41.810Z,6.5
2015-12-08T03:47:41.750Z,6.6
2015-12-08T03:48:41.706Z,6.6
2015-12-08T03:49:41.646Z,6.6
2015-12-08T03:50:41.587Z,6.6
2015-12-08T03:51:41.543Z,6.6
2015-12-08T03:52:41.483Z,6.6
2015-12-08T03:53:41.424Z,6.5
2015-12-08T03:54:41.379Z,6.5
2015-12-08T03:55:41.319Z,6.4
2015-12-08T03:56:41.260Z,6.4
2015-12-08T03:57:41.200Z,6.4
2015-12-08T03:58:41.155Z,6.4
2015-12-08T03:59:41.096Z,6.4
2015-12-08T04:00:41.036Z,6.4
2015-12-08T04:01:40.977Z,6.4
2015-12-08T04:02:40.933Z,6.4
2015-12-08T04:03:40.872Z,6.4
2015-12-08T04:04:40.812Z,6.3
2015-12-08T04:05:40.768Z,6.4
2015-12-08T04:06:40.709Z,6.4
2015-12-08T04:07:40.649Z,6.3
2015-12-08T04:08:40.605Z,6.4
2015-12-08T04:09:40.545Z,6.4
2015-12-08T04:10:40.485Z,6.4
2015-12-08T04:11:40.441Z,6.3
2015-12-08T04:12:40.381Z,6.4
2015-12-08T04:13:40.321Z,6.3
2015-12-08T04:14:40.276Z,6.2
2015-12-08T04:15:40.218Z,6.1
2015-12-08T04:16:40.155Z,6.1
2015-12-08T04:17:40.111Z,6.1
2015-12-08T04:18:40.051Z,6.2
2015-12-08T04:19:40.007Z,6.3
2015-12-08T04:20:39.947Z,6.3
2015-12-08T04:21:39.888Z,6.2
2015-12-08T04:22:39.875Z,6.3
2015-12-08T04:23:39.784Z,6.3
2015-12-08T04:24:39.723Z,6.3
2015-12-08T04:25:39.664Z,6.3
2015-12-08T04:26:39.620Z,6.3
2015-12-08T04:27:39.560Z,6.3
2015-12-08T04:28:39.517Z,6.2
2015-12-08T04:29:39.456Z,6.2
2015-12-08T04:30:39.411Z,6.2
2015-12-08T04:31:39.367Z,6.2
2015-12-08T04:32:39.292Z,6.1
2015-12-08T04:33:39.233Z,6.1
2015-12-08T04:34:39.189Z,6.2
2015-12-08T04:35:39.128Z,6.1
2015-12-08T04:36:39.084Z,6.1
2015-12-08T04:37:39.025Z,6.2
2015-12-08T04:38:38.964Z,6.3
2015-12-08T04:39:38.921Z,6.3
2015-12-08T04:40:38.861Z,6.3
2015-12-08T04:41:38.802Z,6.1
2015-12-08T04:42:38.758Z,6.1
2015-12-08T04:43:38.698Z,6.1
2015-12-08T04:44:38.653Z,6
2015-12-08T04:45:38.594Z,5.8
2015-12-08T04:46:38.533Z,5.7
2015-12-08T04:47:38.474Z,5.7
2015-12-08T04:48:38.430Z,5.7
2015-12-08T04:49:38.370Z,5.6
2015-12-08T04:50:38.310Z,5.5
2015-12-08T04:51:38.266Z,5.6
2015-12-08T04:52:38.206Z,5.6
2015-12-08T04:53:38.147Z,5.5
2015-12-08T04:54:38.087Z,5.4
2015-12-08T04:55:38.043Z,5.4
2015-12-08T04:56:37.982Z,5.4
2015-12-08T04:57:37.924Z,5.5
2015-12-08T04:58:37.879Z,5.4
2015-12-08T04:59:37.819Z,5.4
2015-12-08T05:00:37.760Z,5.4
2015-12-08T05:01:37.715Z,5.4
2015-12-08T05:02:37.655Z,5.5
2015-12-08T05:03:37.612Z,5.6
2015-12-08T05:04:37.552Z,5.7
2015-12-08T05:05:37.492Z,5.7
2015-12-08T05:06:37.432Z,5.6
2015-12-08T05:07:37.387Z,5.7
2015-12-08T05:08:37.344Z,5.7
2015-12-08T05:09:37.284Z,5.6
2015-12-08T05:10:37.225Z,5.7
2015-12-08T05:11:37.165Z,5.6
2015-12-08T05:12:37.121Z,5.6
2015-12-08T05:13:37.060Z,5.6
2015-12-08T05:14:37.001Z,5.5
2015-12-08T05:15:36.938Z,5.3
2015-12-08T05:16:36.879Z,5.3
2015-12-08T05:17:36.834Z,5.3
2015-12-08T05:18:36.775Z,5.3
2015-12-08T05:19:36.731Z,5.2
2015-12-08T05:20:36.670Z,5.2
2015-12-08T05:21:36.611Z,5.4
2015-12-08T05:22:36.551Z,5.4
2015-12-08T05:23:36.492Z,5.4
2015-12-08T05:24:36.448Z,5.4
2015-12-08T05:25:36.388Z,5.3
2015-12-08T05:26:36.343Z,5.3
2015-12-08T05:27:36.284Z,5.2
2015-12-08T05:28:36.223Z,5.2
2015-12-08T05:29:36.165Z,5.3
2015-12-08T05:30:36.120Z,5.3
2015-12-08T05:31:36.061Z,5.4
2015-12-08T05:32:36.016Z,5.3
2015-12-08T05:33:35.957Z,5.3
2015-12-08T05:34:35.912Z,5.4
2015-12-08T05:35:35.837Z,5.3
2015-12-08T05:36:35.793Z,5.3
2015-12-08T05:37:35.734Z,5.3
2015-12-08T05:38:35.673Z,5.2
2015-12-08T05:39:35.614Z,5.3
2015-12-08T05:40:35.570Z,5.4
2015-12-08T05:41:35.509Z,5.4
2015-12-08T05:42:35.450Z,5.5
2015-12-08T05:43:35.406Z,5.5
2015-12-08T05:44:35.347Z,5.5
2015-12-08T05:45:35.287Z,5.4
2015-12-08T05:46:35.243Z,5.3
2015-12-08T05:47:35.183Z,5.3
2015-12-08T05:48:35.122Z,5.3
2015-12-08T05:49:35.064Z,5.3
2015-12-08T05:50:35.020Z,5.2
2015-12-08T05:51:34.959Z,5.3
2015-12-08T05:52:34.915Z,5.3
2015-12-08T05:53:34.855Z,5.3
2015-12-08T05:54:34.795Z,5.3
2015-12-08T05:55:34.736Z,5.4
2015-12-08T05:56:34.691Z,5.4
2015-12-08T05:57:34.632Z,5.5
2015-12-08T05:58:34.572Z,5.5
2015-12-08T05:59:34.528Z,5.5
2015-12-08T06:00:34.467Z,5.5
2015-12-08T06:01:34.407Z,5.5
2015-12-08T06:02:34.363Z,5.6
2015-12-08T06:03:34.303Z,5.5
2015-12-08T06:04:34.243Z,5.5
2015-12-08T06:05:34.198Z,5.4
2015-12-08T06:06:34.140Z,5.4
2015-12-08T06:07:34.079Z,5.4
2015-12-08T06:08:34.036Z,5.3
2015-12-08T06:09:34.006Z,5.3
2015-12-08T06:10:33.916Z,5.3
2015-12-08T06:11:33.856Z,5.3
2015-12-08T06:12:33.812Z,5.4
2015-12-08T06:13:33.752Z,5.4
2015-12-08T06:14:33.692Z,5.4
2015-12-08T06:15:33.633Z,5.4
2015-12-08T06:16:33.589Z,5.4
2015-12-08T06:17:33.528Z,5.4
2015-12-08T06:18:33.470Z,5.3
2015-12-08T06:19:33.425Z,5.2
2015-12-08T06:20:33.365Z,5.2
2015-12-08T06:21:33.306Z,5.3
2015-12-08T06:22:33.261Z,5.3
2015-12-08T06:23:33.202Z,5.2
2015-12-08T06:24:33.142Z,5.3
2015-12-08T06:25:33.097Z,5.3
2015-12-08T06:26:33.038Z,5.2
2015-12-08T06:27:32.977Z,5.3
2015-12-08T06:28:32.934Z,5.2
2015-12-08T06:29:32.874Z,5.3
2015-12-08T06:30:32.814Z,5.3
2015-12-08T06:31:32.770Z,5.2
2015-12-08T06:32:32.710Z,5.3
2015-12-08T06:33:32.651Z,5.1
2015-12-08T06:34:32.591Z,5.1
2015-12-08T06:35:32.547Z,5.2
2015-12-08T06:36:32.487Z,5.3
2015-12-08T06:37:32.427Z,5.3
2015-12-08T06:38:32.382Z,5.4
2015-12-08T06:39:32.324Z,5.3
2015-12-08T06:40:32.264Z,5.2
2015-12-08T06:41:32.204Z,5.1
2015-12-08T06:42:32.160Z,4.9
2015-12-08T06:43:32.099Z,4.8
2015-12-08T06:44:32.040Z,4.8
2015-12-08T06:45:31.980Z,4.8
2015-12-08T06:46:31.935Z,4.9
2015-12-08T06:47:31.876Z,5
2015-12-08T06:48:31.816Z,4.9
2015-12-08T06:49:31.757Z,4.9
2015-12-08T06:50:31.712Z,4.8
2015-12-08T06:51:31.654Z,4.7
2015-12-08T06:52:31.593Z,4.7
2015-12-08T06:53:31.534Z,4.6
2015-12-08T06:54:31.490Z,4.4
2015-12-08T06:55:31.429Z,4.5
2015-12-08T06:56:31.385Z,4.6
2015-12-08T06:57:31.326Z,4.7
2015-12-08T06:58:31.266Z,4.9
2015-12-08T06:59:31.235Z,4.8
2015-12-08T07:00:31.159Z,4.7
2015-12-08T07:01:31.099Z,4.7
2015-12-08T07:02:31.055Z,4.7
2015-12-08T07:03:30.979Z,4.8
2015-12-08T07:04:30.936Z,4.8
2015-12-08T07:05:30.875Z,4.7
2015-12-08T07:06:30.816Z,4.7
2015-12-08T07:07:30.756Z,4.8
2015-12-08T07:08:30.711Z,4.8
2015-12-08T07:09:30.653Z,4.9
2015-12-08T07:10:30.592Z,4.9
2015-12-08T07:11:30.533Z,4.7
2015-12-08T07:12:30.489Z,4.7
2015-12-08T07:13:30.429Z,4.7
2015-12-08T07:14:30.370Z,4.6
2015-12-08T07:15:30.325Z,4.5
2015-12-08T07:16:30.265Z,4.6
2015-12-08T07:17:30.205Z,4.5
2015-12-08T07:18:30.145Z,4.5
2015-12-08T07:19:30.101Z,4.5
2015-12-08T07:20:30.042Z,4.5
2015-12-08T07:21:29.983Z,4.4
2015-12-08T07:22:29.922Z,4.5
2015-12-08T07:23:29.878Z,4.5
2015-12-08T07:24:29.818Z,4.4
2015-12-08T07:25:29.774Z,4.4
2015-12-08T07:26:29.699Z,4.5
2015-12-08T07:27:29.654Z,4.6
2015-12-08T07:28:29.594Z,4.6
2015-12-08T07:29:29.535Z,4.6
2015-12-08T07:30:29.475Z,4.6
2015-12-08T07:31:29.416Z,4.7
2015-12-08T07:32:29.371Z,4.7
2015-12-08T07:33:29.315Z,4.7
2015-12-08T07:34:29.271Z,4.7
2015-12-08T07:35:29.211Z,4.6
2015-12-08T07:36:29.136Z,4.5
2015-12-08T07:37:29.092Z,4.5
2015-12-08T07:38:29.032Z,4.5
2015-12-08T07:39:28.972Z,4.5
2015-12-08T07:40:28.928Z,4.5
2015-12-08T07:41:28.869Z,4.6
2015-12-08T07:42:28.809Z,4.5
2015-12-08T07:43:28.749Z,4.7
2015-12-08T07:44:28.689Z,4.8
2015-12-08T07:45:28.629Z,5
2015-12-08T07:46:28.585Z,5.2
2015-12-08T07:47:28.525Z,5.5
2015-12-08T07:48:28.466Z,5.9
2015-12-08T07:49:28.422Z,6.2
2015-12-08T07:50:28.361Z,6.3
2015-12-08T07:51:28.302Z,6.3
2015-12-08T07:52:28.258Z,6.5
2015-12-08T07:53:28.197Z,6.6
2015-12-08T07:54:28.138Z,6.8
2015-12-08T07:55:28.078Z,6.8
2015-12-08T07:56:28.035Z,6.8
2015-12-08T07:57:27.974Z,6.8
2015-12-08T07:58:27.930Z,6.8
2015-12-08T07:59:27.870Z,6.6
2015-12-08T08:00:27.811Z,6.3
2015-12-08T08:01:27.766Z,6.1
2015-12-08T08:02:27.707Z,6.2
2015-12-08T08:03:27.647Z,6.1
2015-12-08T08:04:27.602Z,6.1
2015-12-08T08:05:27.543Z,6
2015-12-08T08:06:27.482Z,5.9
2015-12-08T08:07:27.454Z,5.8
2015-12-08T08:08:27.379Z,5.7
2015-12-08T08:09:27.320Z,5.6
2015-12-08T08:10:27.275Z,5.7
2015-12-08T08:11:27.215Z,5.8
2015-12-08T08:12:27.156Z,5.9
2015-12-08T08:13:27.096Z,6.2
2015-12-08T08:14:27.052Z,6.7
2015-12-08T08:15:26.992Z,7.5
2015-12-08T08:16:26.948Z,8.2
2015-12-08T08:17:26.888Z,8.5
2015-12-08T08:18:26.828Z,8.7
2015-12-08T08:19:26.784Z,9
2015-12-08T08:20:26.724Z,9.2
2015-12-08T08:21:26.728Z,9.5
2015-12-08T08:22:26.620Z,9.8
2015-12-08T08:23:26.558Z,10
2015-12-08T08:24:26.514Z,10.1
2015-12-08T08:25:26.453Z,10.2
2015-12-08T08:26:26.409Z,10.2
2015-12-08T08:27:26.350Z,10.2
2015-12-08T08:28:26.305Z,10.2
2015-12-08T08:29:26.246Z,10.4
2015-12-08T08:30:26.201Z,10.6
2015-12-08T08:31:26.157Z,10.7
2015-12-08T08:32:26.097Z,10.7
2015-12-08T08:33:26.052Z,10.8
2015-12-08T08:34:25.994Z,11
2015-12-08T08:35:25.949Z,11.1
2015-12-08T08:36:25.890Z,11.1
2015-12-08T08:37:25.846Z,11.6
2015-12-08T08:38:25.785Z,11.8
2015-12-08T08:39:25.741Z,11.9
2015-12-08T08:40:25.697Z,11.9
2015-12-08T08:41:25.637Z,12
2015-12-08T08:42:25.594Z,12.2
2015-12-08T08:43:25.534Z,12.2
2015-12-08T08:44:25.489Z,12.6
2015-12-08T08:45:25.446Z,12.9
2015-12-08T08:46:25.385Z,13.1
2015-12-08T08:47:25.343Z,13.3
2015-12-08T08:48:25.299Z,13.4
2015-12-08T08:49:25.236Z,13.4
2015-12-08T08:50:25.209Z,13.4
2015-12-08T08:51:25.148Z,13.5
2015-12-08T08:52:25.089Z,13.5
2015-12-08T08:53:25.045Z,13.7
2015-12-08T08:54:24.985Z,13.6
2015-12-08T08:55:24.941Z,13.9
2015-12-08T08:56:24.897Z,13.9
2015-12-08T08:57:24.855Z,14.1
2015-12-08T08:58:24.795Z,14.2
2015-12-08T08:59:24.748Z,14.1
2015-12-08T09:00:24.704Z,14.2
2015-12-08T09:01:24.660Z,14.3
2015-12-08T09:02:24.615Z,14.5
2015-12-08T09:03:24.555Z,14.4
2015-12-08T09:04:24.511Z,14.6
2015-12-08T09:05:24.468Z,14.6
2015-12-08T09:06:24.410Z,14.9
2015-12-08T09:07:24.366Z,15.4
2015-12-08T09:08:24.319Z,15
2015-12-08T09:09:24.274Z,15.1
2015-12-08T09:10:24.231Z,15.4
2015-12-08T09:11:24.170Z,15.6
2015-12-08T09:12:24.126Z,15.4
2015-12-08T09:13:24.082Z,15.6
2015-12-08T09:14:24.040Z,15.5
2015-12-08T09:15:23.981Z,15.7
2015-12-08T09:16:23.934Z,16.2
2015-12-08T09:17:23.890Z,16.1
2015-12-08T09:18:23.845Z,16.2
2015-12-08T09:19:23.787Z,16.4
2015-12-08T09:20:23.742Z,15.7
2015-12-08T09:21:23.700Z,15.1
2015-12-08T09:22:23.641Z,15
2015-12-08T09:23:23.596Z,15.1
2015-12-08T09:24:23.549Z,15
2015-12-08T09:25:23.489Z,15
2015-12-08T09:26:23.445Z,15.2
2015-12-08T09:27:23.402Z,15.7
2015-12-08T09:28:23.373Z,16.1
2015-12-08T09:29:23.299Z,16.5
2015-12-08T09:30:23.255Z,16.8
2015-12-08T09:31:23.210Z,17
2015-12-08T09:32:23.151Z,17.1
2015-12-08T09:33:23.108Z,17.2
2015-12-08T09:34:23.063Z,16.9
2015-12-08T09:35:23.004Z,17
2015-12-08T09:36:22.960Z,16.6
2015-12-08T09:37:22.915Z,16
2015-12-08T09:38:22.868Z,16.2
2015-12-08T09:39:22.800Z,16.2
2015-12-08T09:40:22.744Z,16.6
2015-12-08T09:41:22.690Z,17.1
2015-12-08T09:42:22.633Z,17.2
2015-12-08T09:43:22.578Z,17.2
2015-12-08T09:44:22.516Z,17.2
2015-12-08T09:45:22.467Z,16.8
2015-12-08T09:46:22.419Z,16.7
2015-12-08T09:47:22.355Z,17.2
2015-12-08T09:48:22.307Z,17.4
2015-12-08T09:49:22.262Z,17.6
2015-12-08T09:50:22.200Z,17.7
2015-12-08T09:51:22.154Z,17.9
2015-12-08T09:52:22.108Z,17.8
2015-12-08T09:53:22.064Z,17.8
2015-12-08T09:54:22.019Z,17.5
2015-12-08T09:55:21.975Z,17.6
2015-12-08T09:56:21.914Z,17.2
2015-12-08T09:57:21.870Z,16.9
2015-12-08T09:58:21.825Z,15.9
2015-12-08T09:59:21.766Z,15
2015-12-08T10:00:21.720Z,14.1
2015-12-08T10:01:21.677Z,13.5
2015-12-08T10:02:21.617Z,13
2015-12-08T10:03:21.572Z,12.7
2015-12-08T10:04:21.512Z,12.6
2015-12-08T10:05:21.467Z,12.4
2015-12-08T10:06:21.409Z,12.3
2015-12-08T10:07:21.364Z,12.3
2015-12-08T10:08:21.305Z,12.3
2015-12-08T10:09:21.261Z,12.2
2015-12-08T10:10:21.200Z,12.2
2015-12-08T10:11:21.157Z,12.1
2015-12-08T10:12:21.112Z,12.2
2015-12-08T10:13:21.050Z,12.7
2015-12-08T10:14:21.005Z,13.7
2015-12-08T10:15:20.961Z,14.9
2015-12-08T10:16:20.902Z,16.3
2015-12-08T10:17:20.858Z,17.2
2015-12-08T10:18:20.814Z,18
2015-12-08T10:19:20.770Z,18.3
2015-12-08T10:20:20.725Z,18.3
2015-12-08T10:21:20.666Z,18.5
2015-12-08T10:22:20.636Z,18.4
2015-12-08T10:23:20.578Z,17.9
2015-12-08T10:24:20.533Z,17.6
2015-12-08T10:25:20.488Z,18.1
2015-12-08T10:26:20.444Z,18.7
2015-12-08T10:27:20.400Z,19
2015-12-08T10:28:20.357Z,19.2
2015-12-08T10:29:20.312Z,19.5
2015-12-08T10:30:20.252Z,19.7
2015-12-08T10:31:20.210Z,20.2
2015-12-08T10:32:20.166Z,20.3
2015-12-08T10:33:20.135Z,20.4
2015-12-08T10:34:20.075Z,20.6
2015-12-08T10:35:20.046Z,20.7
2015-12-08T10:36:19.986Z,20
2015-12-08T10:37:19.942Z,20
2015-12-08T10:38:19.898Z,20.2
2015-12-08T10:39:19.854Z,19.2
2015-12-08T10:40:19.810Z,17.6
2015-12-08T10:41:19.844Z,16.2
2015-12-08T10:42:19.706Z,15.1
2015-12-08T10:43:19.678Z,14.4
2015-12-08T10:44:19.617Z,13.8
2015-12-08T10:45:19.558Z,13.2
2015-12-08T10:46:19.517Z,13
2015-12-08T10:47:19.456Z,12.9
2015-12-08T10:48:19.410Z,12.9
2015-12-08T10:49:19.350Z,12.8
2015-12-08T10:50:19.305Z,12.7
2015-12-08T10:51:19.261Z,12.5
2015-12-08T10:52:19.202Z,12.6
2015-12-08T10:53:19.158Z,12.8
2015-12-08T10:54:19.097Z,13.7
2015-12-08T10:55:19.055Z,15.2
2015-12-08T10:56:19.012Z,16.6
2015-12-08T10:57:18.952Z,17.8
2015-12-08T10:58:18.905Z,18.8
2015-12-08T10:59:18.861Z,19.1
2015-12-08T11:00:18.832Z,19.4
2015-12-08T11:01:18.772Z,19.5
2015-12-08T11:02:18.729Z,19.9
2015-12-08T11:03:18.684Z,20.3
2015-12-08T11:04:18.641Z,20.1
2015-12-08T11:05:18.612Z,20.1
2015-12-08T11:06:18.539Z,20.3
2015-12-08T11:07:18.494Z,19.6
2015-12-08T11:08:18.447Z,18
2015-12-08T11:09:18.403Z,16.7
2015-12-08T11:10:18.359Z,15.8
2015-12-08T11:11:18.300Z,15.2
2015-12-08T11:12:18.256Z,14.8
2015-12-08T11:13:18.211Z,14.4
2015-12-08T11:14:18.150Z,14
2015-12-08T11:15:18.092Z,13.9
2015-12-08T11:16:18.063Z,13.8
2015-12-08T11:17:18.004Z,13.7
2015-12-08T11:18:17.961Z,14.2
2015-12-08T11:19:17.933Z,15.2
2015-12-08T11:20:17.855Z,16.2
2015-12-08T11:21:17.794Z,16.9
2015-12-08T11:22:17.751Z,17
2015-12-08T11:23:17.707Z,16.9
2015-12-08T11:24:17.647Z,16.1
2015-12-08T11:25:17.603Z,15.4
2015-12-08T11:26:18.808Z,15
2015-12-08T11:27:17.498Z,14.4
2015-12-08T11:28:17.456Z,14.3
2015-12-08T11:29:17.413Z,14.2
2015-12-08T11:30:17.353Z,14
2015-12-08T11:31:17.309Z,13.8
2015-12-08T11:32:17.264Z,13.7
2015-12-08T11:33:17.204Z,13.6
2015-12-08T11:34:17.161Z,13.6
2015-12-08T11:35:17.098Z,13.8
2015-12-08T11:36:17.054Z,14.5
2015-12-08T11:37:16.995Z,15.5
2015-12-08T11:38:16.950Z,16.5
2015-12-08T11:39:16.906Z,17.2
2015-12-08T11:40:16.864Z,17.7
2015-12-08T11:41:16.805Z,18.2
2015-12-08T11:42:16.761Z,18.3
2015-12-08T11:43:16.716Z,18.1
2015-12-08T11:44:16.672Z,18.1
2015-12-08T11:45:16.609Z,17.9
2015-12-08T11:46:16.566Z,17.9
2015-12-08T11:47:16.521Z,17.7
2015-12-08T11:48:16.477Z,17.7
2015-12-08T11:49:16.432Z,17.6
2015-12-08T11:50:16.374Z,17.6
2015-12-08T11:51:16.332Z,18.3
2015-12-08T11:52:16.287Z,19.2
2015-12-08T11:53:16.243Z,19.8
2015-12-08T11:54:16.199Z,20.4
2015-12-08T11:55:16.152Z,20.9
2015-12-08T11:56:16.107Z,20
2015-12-08T11:57:16.048Z,19.7
2015-12-08T11:58:16.004Z,19.9
2015-12-08T11:59:15.959Z,20.3
2015-12-08T12:00:15.938Z,20.7
2015-12-08T12:01:15.862Z,20.9
2015-12-08T12:02:15.834Z,20.9
2015-12-08T12:03:15.790Z,20.3
2015-12-08T12:04:15.745Z,19.2
2015-12-08T12:05:15.683Z,18.3
2015-12-08T12:06:15.639Z,17.9
2015-12-08T12:07:15.595Z,18.4
2015-12-08T12:08:15.551Z,19.5
2015-12-08T12:09:15.494Z,20.5
2015-12-08T12:10:15.449Z,21.3
2015-12-08T12:11:15.420Z,21.3
2015-12-08T12:12:15.361Z,21.4
2015-12-08T12:13:15.333Z,22
2015-12-08T12:14:15.289Z,22.1
2015-12-08T12:15:15.242Z,21.9
2015-12-08T12:16:15.182Z,21.5
2015-12-08T12:17:15.138Z,20.3
2015-12-08T12:18:15.109Z,19.5
2015-12-08T12:19:15.049Z,19.4
2015-12-08T12:20:15.006Z,19.6
2015-12-08T12:21:14.963Z,19.6
2015-12-08T12:22:14.918Z,19.6
2015-12-08T12:23:14.876Z,19.4
2015-12-08T12:24:14.831Z,19.4
2015-12-08T12:25:14.768Z,19.2
2015-12-08T12:26:14.724Z,19.3
2015-12-08T12:27:14.680Z,19.6
2015-12-08T12:28:14.637Z,19.4
2015-12-08T12:29:14.592Z,19.2
2015-12-08T12:30:14.550Z,18.7
2015-12-08T12:31:14.504Z,18.7
2015-12-08T12:32:14.460Z,18.6
2015-12-08T12:33:14.402Z,18.5
2015-12-08T12:34:14.358Z,18.3
2015-12-08T12:35:14.311Z,18.2
2015-12-08T12:36:14.251Z,18.1
2015-12-08T12:37:14.223Z,17.8
2015-12-08T12:38:14.163Z,17.7
2015-12-08T12:39:14.119Z,17.4
2015-12-08T12:40:14.075Z,17.6
2015-12-08T12:41:14.016Z,17.3
2015-12-08T12:42:13.972Z,17.3
2015-12-08T12:43:13.929Z,17
2015-12-08T12:44:13.866Z,16.6
2015-12-08T12:45:13.822Z,16.9
2015-12-08T12:46:13.778Z,16.9
2015-12-08T12:47:13.734Z,16.9
2015-12-08T12:48:13.690Z,16.9
2015-12-08T12:49:13.630Z,16.9
2015-12-08T12:50:13.587Z,16.7
2015-12-08T12:51:13.529Z,16.5
2015-12-08T12:52:13.484Z,16.6
2015-12-08T12:53:13.437Z,16.8
2015-12-08T12:54:13.377Z,17.1
2015-12-08T12:55:13.333Z,17.2
2015-12-08T12:56:13.290Z,17.3
2015-12-08T12:57:13.246Z,17.3
2015-12-08T12:58:13.201Z,17.2
2015-12-08T12:59:13.141Z,17.3
2015-12-08T13:00:13.100Z,17.4
2015-12-08T13:01:13.040Z,17.3
2015-12-08T13:02:12.993Z,17.2
2015-12-08T13:03:12.949Z,17.2
2015-12-08T13:04:12.904Z,17.2
2015-12-08T13:05:12.845Z,17.1
2015-12-08T13:06:12.800Z,17.3
2015-12-08T13:07:12.756Z,17.6
2015-12-08T13:08:12.714Z,17.8
2015-12-08T13:09:12.670Z,17.7
2015-12-08T13:10:12.627Z,17.7
2015-12-08T13:11:12.564Z,17.8
2015-12-08T13:12:12.519Z,17.6
2015-12-08T13:13:12.475Z,17.4
2015-12-08T13:14:12.431Z,17.2
2015-12-08T13:15:12.372Z,17
2015-12-08T13:16:12.327Z,16.7
2015-12-08T13:17:12.285Z,16.8
2015-12-08T13:18:12.241Z,16.8
2015-12-08T13:19:12.182Z,16.7
2015-12-08T13:20:12.135Z,16.6
2015-12-08T13:21:12.090Z,16.6
2015-12-08T13:22:12.046Z,16.5
2015-12-08T13:23:12.002Z,16.1
2015-12-08T13:24:11.943Z,15.8
2015-12-08T13:25:11.901Z,15.4
2015-12-08T13:26:11.856Z,15.3
2015-12-08T13:27:11.797Z,15.2
2015-12-08T13:28:11.750Z,15.1
2015-12-08T13:29:11.691Z,14.9
2015-12-08T13:30:11.646Z,14.6
2015-12-08T13:31:11.601Z,14.3
2015-12-08T13:32:11.559Z,14.1
2015-12-08T13:33:11.498Z,14
2015-12-08T13:34:11.455Z,13.9
2015-12-08T13:35:11.412Z,13.8
2015-12-08T13:36:11.352Z,13.6
2015-12-08T13:37:11.305Z,13.6
2015-12-08T13:38:11.245Z,13.5
2015-12-08T13:39:11.202Z,13.5